createdAt,value
2023-03-06T00:00:55.098Z,995.18
2023-03-06T00:01:55.017Z,995.18
2023-03-06T00:02:54.995Z,995.18
2023-03-06T00:03:55.039Z,995.17
2023-03-06T00:04:54.983Z,995.17
2023-03-06T00:05:55.055Z,995.16
2023-03-06T00:06:54.977Z,995.15
2023-03-06T00:07:54.956Z,995.13
2023-03-06T00:08:54.931Z,995.12
2023-03-06T00:09:54.918Z,995.10
2023-03-06T00:10:54.921Z,995.08
2023-03-06T00:11:54.932Z,995.05
2023-03-06T00:12:54.890Z,995.04
2023-03-06T00:13:54.882Z,995.04
2023-03-06T00:14:54.881Z,995.05
2023-03-06T00:15:54.888Z,995.04
2023-03-06T00:16:54.880Z,995.04
2023-03-06T00:17:54.838Z,995.02
2023-03-06T00:18:54.832Z,995.00
2023-03-06T00:19:54.817Z,994.99
2023-03-06T00:20:54.820Z,994.98
2023-03-06T00:21:54.850Z,994.98
2023-03-06T00:22:54.783Z,994.97
2023-03-06T00:23:54.782Z,994.96
2023-03-06T00:24:54.783Z,994.95
2023-03-06T00:26:01.293Z,994.94
2023-03-06T00:26:54.769Z,994.94
2023-03-06T00:27:54.744Z,994.93
2023-03-06T00:28:54.736Z,994.92
2023-03-06T00:29:54.721Z,994.91
2023-03-06T00:30:54.714Z,994.90
2023-03-06T00:31:54.724Z,994.89
2023-03-06T00:32:54.687Z,994.88
2023-03-06T00:33:54.671Z,994.87
2023-03-06T00:34:54.659Z,994.86
2023-03-06T00:35:54.684Z,994.84
2023-03-06T00:36:54.660Z,994.84
2023-03-06T00:37:54.639Z,994.82
2023-03-06T00:39:01.110Z,994.81
2023-03-06T00:40:01.459Z,994.81
2023-03-06T00:40:54.598Z,994.80
2023-03-06T00:42:02.409Z,994.80
2023-03-06T00:42:54.589Z,994.81
2023-03-06T00:43:54.578Z,994.81
2023-03-06T00:45:01.050Z,994.81
2023-03-06T00:46:01.198Z,994.80
2023-03-06T00:46:54.558Z,994.80
2023-03-06T00:47:54.528Z,994.79
2023-03-06T00:48:54.521Z,994.79
2023-03-06T00:49:54.527Z,994.79
2023-03-06T00:50:54.514Z,994.79
2023-03-06T00:51:54.553Z,994.77
2023-03-06T00:52:54.528Z,994.76
2023-03-06T00:53:54.474Z,994.75
2023-03-06T00:54:54.458Z,994.74
2023-03-06T00:55:54.468Z,994.73
2023-03-06T00:56:54.446Z,994.71
2023-03-06T00:57:54.450Z,994.69
2023-03-06T00:58:54.450Z,994.69
2023-03-06T00:59:54.408Z,994.68
2023-03-06T01:00:54.471Z,994.66
2023-03-06T01:01:54.485Z,994.66
2023-03-06T01:02:54.396Z,994.65
2023-03-06T01:03:54.369Z,994.64
2023-03-06T01:04:54.354Z,994.64
2023-03-06T01:05:54.347Z,994.62
2023-03-06T01:06:54.347Z,994.61
2023-03-06T01:07:54.353Z,994.61
2023-03-06T01:08:54.309Z,994.59
2023-03-06T01:09:54.303Z,994.57
2023-03-06T01:10:54.291Z,994.56
2023-03-06T01:11:54.299Z,994.55
2023-03-06T01:12:54.290Z,994.53
2023-03-06T01:13:54.263Z,994.53
2023-03-06T01:14:54.246Z,994.52
2023-03-06T01:15:54.238Z,994.51
2023-03-06T01:16:54.246Z,994.51
2023-03-06T01:17:54.244Z,994.49
2023-03-06T01:18:54.210Z,994.49
2023-03-06T01:19:54.204Z,994.49
2023-03-06T01:20:54.205Z,994.49
2023-03-06T01:21:54.183Z,994.48
2023-03-06T01:22:54.192Z,994.48
2023-03-06T01:23:54.159Z,994.47
2023-03-06T01:24:54.192Z,994.46
2023-03-06T01:25:54.142Z,994.45
2023-03-06T01:26:54.135Z,994.45
2023-03-06T01:27:54.146Z,994.45
2023-03-06T01:28:54.117Z,994.45
2023-03-06T01:29:54.093Z,994.44
2023-03-06T01:30:54.099Z,994.43
2023-03-06T01:31:54.154Z,994.42
2023-03-06T01:32:54.094Z,994.42
2023-03-06T01:33:54.058Z,994.40
2023-03-06T01:34:54.050Z,994.40
2023-03-06T01:35:54.083Z,994.39
2023-03-06T01:36:54.025Z,994.38
2023-03-06T01:37:54.038Z,994.35
2023-03-06T01:38:54.022Z,994.34
2023-03-06T01:39:54.001Z,994.34
2023-03-06T01:40:53.983Z,994.33
2023-03-06T01:41:54.013Z,994.32
2023-03-06T01:42:53.984Z,994.30
2023-03-06T01:43:53.960Z,994.29
2023-03-06T01:44:53.972Z,994.28
2023-03-06T01:45:53.988Z,994.26
2023-03-06T01:46:53.929Z,994.25
2023-03-06T01:47:53.940Z,994.25
2023-03-06T01:48:53.905Z,994.24
2023-03-06T01:49:53.909Z,994.23
2023-03-06T01:50:53.909Z,994.22
2023-03-06T01:51:53.896Z,994.22
2023-03-06T01:52:53.891Z,994.21
2023-03-06T01:53:53.860Z,994.21
2023-03-06T01:54:53.841Z,994.19
2023-03-06T01:55:53.849Z,994.16
2023-03-06T01:56:53.841Z,994.15
2023-03-06T01:57:53.862Z,994.14
2023-03-06T01:58:53.807Z,994.13
2023-03-06T01:59:53.803Z,994.13
2023-03-06T02:00:53.829Z,994.11
2023-03-06T02:01:53.780Z,994.09
2023-03-06T02:02:53.783Z,994.09
2023-03-06T02:03:53.775Z,994.08
2023-03-06T02:04:53.743Z,994.07
2023-03-06T02:05:53.741Z,994.06
2023-03-06T02:06:53.723Z,994.06
2023-03-06T02:07:53.752Z,994.07
2023-03-06T02:08:53.718Z,994.06
2023-03-06T02:09:53.706Z,994.05
2023-03-06T02:10:53.702Z,994.04
2023-03-06T02:11:53.679Z,994.02
2023-03-06T02:12:53.686Z,994.00
2023-03-06T02:13:53.714Z,993.99
2023-03-06T02:14:53.679Z,993.98
2023-03-06T02:15:53.652Z,993.96
2023-03-06T02:16:53.631Z,993.94
2023-03-06T02:17:53.651Z,993.93
2023-03-06T02:18:53.605Z,993.93
2023-03-06T02:19:53.608Z,993.92
2023-03-06T02:20:53.584Z,993.91
2023-03-06T02:21:53.571Z,993.89
2023-03-06T02:22:53.609Z,993.89
2023-03-06T02:23:53.558Z,993.89
2023-03-06T02:24:53.542Z,993.87
2023-03-06T02:25:53.554Z,993.87
2023-03-06T02:26:53.520Z,993.86
2023-03-06T02:27:53.543Z,993.85
2023-03-06T02:28:53.503Z,993.85
2023-03-06T02:29:53.509Z,993.84
2023-03-06T02:30:53.537Z,993.82
2023-03-06T02:31:53.480Z,993.81
2023-03-06T02:32:53.498Z,993.78
2023-03-06T02:33:53.454Z,993.76
2023-03-06T02:34:53.478Z,993.74
2023-03-06T02:35:53.479Z,993.72
2023-03-06T02:36:53.434Z,993.72
2023-03-06T02:37:53.418Z,993.70
2023-03-06T02:38:53.426Z,993.68
2023-03-06T02:39:53.410Z,993.67
2023-03-06T02:40:53.401Z,993.66
2023-03-06T02:41:53.376Z,993.65
2023-03-06T02:42:53.367Z,993.64
2023-03-06T02:43:53.393Z,993.60
2023-03-06T02:44:53.340Z,993.56
2023-03-06T02:45:53.361Z,993.53
2023-03-06T02:46:53.354Z,993.51
2023-03-06T02:47:53.331Z,993.47
2023-03-06T02:48:53.321Z,993.44
2023-03-06T02:49:53.308Z,993.41
2023-03-06T02:50:53.269Z,993.40
2023-03-06T02:51:53.282Z,993.37
2023-03-06T02:52:53.292Z,993.34
2023-03-06T02:53:53.276Z,993.32
2023-03-06T02:54:53.235Z,993.31
2023-03-06T02:55:53.257Z,993.31
2023-03-06T02:56:53.203Z,993.31
2023-03-06T02:57:53.236Z,993.33
2023-03-06T02:58:53.226Z,993.33
2023-03-06T02:59:53.198Z,993.33
2023-03-06T03:00:53.179Z,993.31
2023-03-06T03:01:53.246Z,993.27
2023-03-06T03:02:53.156Z,993.25
2023-03-06T03:03:53.178Z,993.26
2023-03-06T03:04:53.235Z,993.29
2023-03-06T03:05:53.131Z,993.32
2023-03-06T03:06:53.109Z,993.36
2023-03-06T03:07:53.115Z,993.35
2023-03-06T03:08:53.129Z,993.35
2023-03-06T03:09:53.078Z,993.36
2023-03-06T03:10:53.078Z,993.37
2023-03-06T03:11:53.069Z,993.37
2023-03-06T03:12:53.042Z,993.37
2023-03-06T03:13:53.082Z,993.38
2023-03-06T03:14:53.030Z,993.37
2023-03-06T03:15:53.052Z,993.38
2023-03-06T03:16:53.008Z,993.38
2023-03-06T03:17:53.003Z,993.38
2023-03-06T03:18:53.039Z,993.36
2023-03-06T03:19:52.987Z,993.37
2023-03-06T03:20:52.970Z,993.35
2023-03-06T03:21:52.962Z,993.34
2023-03-06T03:22:52.939Z,993.32
2023-03-06T03:23:52.975Z,993.32
2023-03-06T03:24:53.077Z,993.31
2023-03-06T03:25:52.923Z,993.30
2023-03-06T03:26:52.905Z,993.28
2023-03-06T03:27:52.908Z,993.29
2023-03-06T03:28:52.934Z,993.30
2023-03-06T03:29:52.878Z,993.27
2023-03-06T03:30:52.897Z,993.25
2023-03-06T03:31:52.888Z,993.25
2023-03-06T03:32:52.856Z,993.23
2023-03-06T03:33:52.864Z,993.23
2023-03-06T03:34:52.820Z,993.22
2023-03-06T03:35:52.859Z,993.21
2023-03-06T03:36:52.816Z,993.19
2023-03-06T03:37:52.793Z,993.19
2023-03-06T03:38:52.812Z,993.20
2023-03-06T03:39:52.771Z,993.19
2023-03-06T03:40:52.764Z,993.19
2023-03-06T03:41:52.759Z,993.20
2023-03-06T03:42:52.768Z,993.20
2023-03-06T03:43:52.777Z,993.19
2023-03-06T03:44:52.733Z,993.18
2023-03-06T03:45:52.716Z,993.17
2023-03-06T03:46:52.703Z,993.18
2023-03-06T03:47:52.691Z,993.17
2023-03-06T03:48:52.704Z,993.17
2023-03-06T03:49:52.673Z,993.18
2023-03-06T03:50:52.658Z,993.17
2023-03-06T03:51:52.669Z,993.16
2023-03-06T03:52:52.679Z,993.14
2023-03-06T03:53:52.677Z,993.16
2023-03-06T03:54:52.625Z,993.13
2023-03-06T03:55:52.615Z,993.13
2023-03-06T03:56:52.603Z,993.11
2023-03-06T03:57:52.604Z,993.09
2023-03-06T03:58:52.589Z,993.08
2023-03-06T03:59:52.606Z,993.06
2023-03-06T04:00:52.554Z,993.05
2023-03-06T04:01:52.628Z,993.04
2023-03-06T04:02:52.542Z,993.00
2023-03-06T04:03:52.527Z,993.01
2023-03-06T04:04:52.619Z,993.00
2023-03-06T04:05:52.500Z,993.00
2023-03-06T04:06:52.497Z,992.99
2023-03-06T04:07:52.520Z,993.02
2023-03-06T04:08:52.481Z,993.01
2023-03-06T04:09:52.492Z,993.00
2023-03-06T04:10:52.464Z,992.98
2023-03-06T04:11:52.445Z,992.97
2023-03-06T04:12:52.449Z,992.96
2023-03-06T04:13:52.440Z,992.93
2023-03-06T04:14:52.443Z,992.92
2023-03-06T04:15:52.467Z,992.89
2023-03-06T04:16:52.396Z,992.88
2023-03-06T04:17:52.378Z,992.91
2023-03-06T04:18:52.392Z,992.86
2023-03-06T04:19:52.399Z,992.85
2023-03-06T04:20:52.363Z,992.83
2023-03-06T04:21:52.341Z,992.82
2023-03-06T04:22:52.336Z,992.79
2023-03-06T04:23:52.319Z,992.79
2023-03-06T04:24:52.360Z,992.78
2023-03-06T04:25:52.301Z,992.78
2023-03-06T04:26:52.299Z,992.76
2023-03-06T04:27:52.293Z,992.75
2023-03-06T04:28:52.263Z,992.74
2023-03-06T04:29:52.275Z,992.73
2023-03-06T04:30:58.733Z,992.70
2023-03-06T04:31:58.730Z,992.69
2023-03-06T04:32:58.716Z,992.67
2023-03-06T04:33:59.723Z,992.67
2023-03-06T04:35:00.981Z,992.66
2023-03-06T04:35:52.248Z,992.65
2023-03-06T04:36:52.178Z,992.63
2023-03-06T04:37:52.185Z,992.63
2023-03-06T04:38:52.200Z,992.60
2023-03-06T04:39:52.191Z,992.57
2023-03-06T04:40:52.163Z,992.58
2023-03-06T04:41:52.141Z,992.56
2023-03-06T04:42:52.116Z,992.56
2023-03-06T04:43:52.114Z,992.54
2023-03-06T04:44:52.165Z,992.53
2023-03-06T04:45:52.204Z,992.53
2023-03-06T04:46:52.081Z,992.54
2023-03-06T04:47:52.072Z,992.52
2023-03-06T04:48:52.062Z,992.51
2023-03-06T04:49:52.080Z,992.51
2023-03-06T04:50:58.536Z,992.51
2023-03-06T04:51:58.545Z,992.51
2023-03-06T04:52:52.015Z,992.53
2023-03-06T04:53:52.013Z,992.53
2023-03-06T04:54:52.014Z,992.54
2023-03-06T04:55:51.993Z,992.54
2023-03-06T04:56:51.996Z,992.54
2023-03-06T04:57:51.975Z,992.53
2023-03-06T04:58:51.960Z,992.52
2023-03-06T04:59:52.028Z,992.51
2023-03-06T05:00:51.977Z,992.51
2023-03-06T05:01:52.012Z,992.49
2023-03-06T05:02:51.907Z,992.50
2023-03-06T05:03:51.909Z,992.50
2023-03-06T05:04:51.901Z,992.49
2023-03-06T05:05:51.899Z,992.50
2023-03-06T05:06:51.875Z,992.49
2023-03-06T05:07:51.879Z,992.50
2023-03-06T05:08:51.845Z,992.49
2023-03-06T05:09:51.849Z,992.49
2023-03-06T05:10:51.859Z,992.50
2023-03-06T05:11:51.817Z,992.46
2023-03-06T05:12:51.805Z,992.44
2023-03-06T05:13:51.796Z,992.43
2023-03-06T05:14:51.786Z,992.42
2023-03-06T05:15:51.857Z,992.42
2023-03-06T05:16:51.767Z,992.42
2023-03-06T05:17:51.758Z,992.41
2023-03-06T05:18:51.739Z,992.40
2023-03-06T05:19:51.733Z,992.38
2023-03-06T05:20:51.777Z,992.38
2023-03-06T05:21:51.725Z,992.37
2023-03-06T05:22:51.784Z,992.37
2023-03-06T05:23:51.689Z,992.35
2023-03-06T05:24:51.690Z,992.33
2023-03-06T05:25:51.686Z,992.34
2023-03-06T05:26:51.722Z,992.36
2023-03-06T05:27:51.654Z,992.36
2023-03-06T05:28:51.631Z,992.35
2023-03-06T05:29:51.637Z,992.33
2023-03-06T05:30:51.587Z,992.33
2023-03-06T05:31:51.718Z,992.32
2023-03-06T05:32:51.709Z,992.29
2023-03-06T05:33:51.611Z,992.29
2023-03-06T05:34:51.571Z,992.26
2023-03-06T05:35:51.647Z,992.24
2023-03-06T05:36:51.562Z,992.24
2023-03-06T05:37:51.548Z,992.23
2023-03-06T05:38:51.526Z,992.21
2023-03-06T05:39:51.546Z,992.22
2023-03-06T05:40:52.103Z,992.23
2023-03-06T05:41:51.527Z,992.21
2023-03-06T05:42:51.440Z,992.21
2023-03-06T05:43:51.484Z,992.17
2023-03-06T05:44:51.425Z,992.17
2023-03-06T05:45:51.476Z,992.13
2023-03-06T05:46:51.422Z,992.12
2023-03-06T05:47:51.396Z,992.11
2023-03-06T05:48:51.380Z,992.11
2023-03-06T05:49:51.378Z,992.09
2023-03-06T05:50:51.396Z,992.09
2023-03-06T05:51:51.663Z,992.09
2023-03-06T05:52:51.346Z,992.07
2023-03-06T05:53:51.325Z,992.07
2023-03-06T05:54:51.324Z,992.06
2023-03-06T05:55:51.322Z,992.07
2023-03-06T05:56:51.302Z,992.07
2023-03-06T05:57:51.305Z,992.06
2023-03-06T05:58:51.276Z,992.07
2023-03-06T05:59:51.298Z,992.07
2023-03-06T06:00:51.287Z,992.06
2023-03-06T06:01:51.260Z,992.06
2023-03-06T06:02:51.222Z,992.05
2023-03-06T06:03:51.230Z,992.04
2023-03-06T06:04:51.208Z,992.03
2023-03-06T06:05:51.193Z,992.03
2023-03-06T06:06:51.200Z,992.04
2023-03-06T06:07:51.185Z,992.01
2023-03-06T06:08:51.159Z,992.00
2023-03-06T06:09:51.164Z,992.00
2023-03-06T06:10:53.373Z,991.99
2023-03-06T06:11:51.159Z,992.01
2023-03-06T06:12:51.116Z,991.98
2023-03-06T06:13:51.119Z,991.97
2023-03-06T06:14:51.102Z,992.01
2023-03-06T06:15:51.128Z,991.98
2023-03-06T06:16:51.102Z,991.95
2023-03-06T06:17:51.082Z,991.95
2023-03-06T06:18:51.055Z,991.94
2023-03-06T06:19:51.095Z,991.94
2023-03-06T06:20:51.036Z,991.94
2023-03-06T06:21:51.056Z,991.95
2023-03-06T06:22:51.069Z,991.95
2023-03-06T06:23:51.005Z,991.95
2023-03-06T06:24:50.994Z,991.94
2023-03-06T06:25:52.023Z,991.93
2023-03-06T06:26:50.997Z,991.93
2023-03-06T06:27:50.968Z,991.95
2023-03-06T06:28:50.959Z,991.96
2023-03-06T06:29:50.962Z,991.94
2023-03-06T06:30:50.975Z,991.95
2023-03-06T06:31:50.964Z,991.94
2023-03-06T06:32:50.917Z,991.95
2023-03-06T06:33:50.908Z,991.94
2023-03-06T06:34:50.895Z,991.93
2023-03-06T06:35:50.983Z,991.93
2023-03-06T06:36:53.249Z,991.93
2023-03-06T06:37:50.870Z,991.94
2023-03-06T06:38:50.858Z,991.95
2023-03-06T06:39:50.862Z,991.95
2023-03-06T06:41:26.921Z,991.97
2023-03-06T06:42:09.708Z,991.98
2023-03-06T06:42:50.820Z,991.96
2023-03-06T06:43:50.818Z,991.97
2023-03-06T06:44:50.808Z,991.98
2023-03-06T06:45:50.831Z,991.97
2023-03-06T06:47:50.831Z,991.97
2023-03-06T06:48:50.753Z,991.98
2023-03-06T06:49:50.768Z,991.98
2023-03-06T06:50:50.770Z,991.97
2023-03-06T06:51:50.746Z,991.99
2023-03-06T06:52:50.746Z,991.99
2023-03-06T06:53:50.725Z,991.99
2023-03-06T06:54:50.691Z,991.97
2023-03-06T06:55:50.698Z,992.00
2023-03-06T06:56:50.705Z,992.01
2023-03-06T06:57:50.693Z,992.03
2023-03-06T06:58:50.638Z,992.00
2023-03-06T06:59:52.568Z,991.99
2023-03-06T07:00:50.648Z,992.00
2023-03-06T07:01:50.721Z,992.01
2023-03-06T07:02:50.653Z,992.00
2023-03-06T07:03:50.657Z,992.01
2023-03-06T07:05:03.107Z,992.00
2023-03-06T07:05:50.586Z,992.00
2023-03-06T07:06:50.584Z,992.00
2023-03-06T07:07:50.606Z,991.99
2023-03-06T07:08:50.568Z,991.98
2023-03-06T07:09:50.540Z,991.99
2023-03-06T07:10:50.516Z,991.99
2023-03-06T07:11:50.548Z,991.98
2023-03-06T07:12:50.527Z,991.99
2023-03-06T07:13:50.497Z,991.98
2023-03-06T07:14:50.505Z,991.97
2023-03-06T07:15:50.501Z,991.97
2023-03-06T07:16:50.468Z,991.96
2023-03-06T07:17:50.524Z,991.99
2023-03-06T07:18:50.437Z,992.00
2023-03-06T07:19:50.444Z,992.05
2023-03-06T07:20:50.413Z,992.03
2023-03-06T07:21:50.413Z,992.03
2023-03-06T07:22:51.946Z,992.04
2023-03-06T07:23:50.398Z,992.06
2023-03-06T07:24:50.379Z,992.06
2023-03-06T07:25:50.377Z,992.08
2023-03-06T07:26:50.357Z,992.09
2023-03-06T07:27:53.744Z,992.09
2023-03-06T07:28:52.896Z,992.09
2023-03-06T07:29:50.343Z,992.09
2023-03-06T07:30:50.353Z,992.10
2023-03-06T07:31:50.306Z,992.12
2023-03-06T07:32:50.318Z,992.12
2023-03-06T07:33:50.281Z,992.12
2023-03-06T07:34:50.275Z,992.12
2023-03-06T07:35:50.297Z,992.11
2023-03-06T07:36:50.250Z,992.11
2023-03-06T07:37:50.298Z,992.12
2023-03-06T07:38:50.252Z,992.12
2023-03-06T07:39:50.217Z,992.13
2023-03-06T07:40:50.210Z,992.13
2023-03-06T07:41:50.218Z,992.13
2023-03-06T07:42:50.221Z,992.14
2023-03-06T07:43:50.195Z,992.14
2023-03-06T07:44:50.171Z,992.15
2023-03-06T07:45:50.184Z,992.16
2023-03-06T07:46:50.203Z,992.16
2023-03-06T07:47:50.137Z,992.16
2023-03-06T07:48:50.156Z,992.16
2023-03-06T07:49:50.120Z,992.16
2023-03-06T07:50:50.104Z,992.16
2023-03-06T07:51:50.110Z,992.15
2023-03-06T07:52:50.086Z,992.14
2023-03-06T07:53:50.097Z,992.14
2023-03-06T07:54:50.071Z,992.14
2023-03-06T07:55:50.058Z,992.14
2023-03-06T07:56:50.050Z,992.15
2023-03-06T07:57:50.069Z,992.16
2023-03-06T07:58:50.056Z,992.17
2023-03-06T07:59:50.020Z,992.19
2023-03-06T08:00:50.033Z,992.20
2023-03-06T08:01:49.999Z,992.20
2023-03-06T08:02:50.072Z,992.22
2023-03-06T08:03:50.320Z,992.22
2023-03-06T08:04:49.968Z,992.22
2023-03-06T08:05:49.953Z,992.23
2023-03-06T08:06:49.971Z,992.23
2023-03-06T08:07:49.962Z,992.22
2023-03-06T08:08:50.000Z,992.23
2023-03-06T08:09:49.932Z,992.25
2023-03-06T08:10:49.898Z,992.25
2023-03-06T08:11:49.894Z,992.26
2023-03-06T08:12:49.879Z,992.27
2023-03-06T08:13:49.943Z,992.28
2023-03-06T08:14:49.852Z,992.28
2023-03-06T08:15:49.890Z,992.28
2023-03-06T08:16:49.851Z,992.28
2023-03-06T08:17:49.829Z,992.29
2023-03-06T08:18:49.838Z,992.31
2023-03-06T08:19:49.802Z,992.31
2023-03-06T08:20:49.797Z,992.31
2023-03-06T08:21:49.798Z,992.33
2023-03-06T08:22:57.280Z,992.34
2023-03-06T08:23:49.807Z,992.35
2023-03-06T08:24:49.750Z,992.35
2023-03-06T08:25:49.740Z,992.36
2023-03-06T08:26:49.751Z,992.37
2023-03-06T08:27:49.717Z,992.37
2023-03-06T08:28:49.759Z,992.38
2023-03-06T08:29:49.699Z,992.38
2023-03-06T08:30:49.694Z,992.39
2023-03-06T08:31:49.823Z,992.39
2023-03-06T08:32:49.674Z,992.39
2023-03-06T08:33:49.698Z,992.39
2023-03-06T08:34:49.669Z,992.39
2023-03-06T08:35:49.715Z,992.39
2023-03-06T08:36:49.648Z,992.41
2023-03-06T08:37:49.621Z,992.40
2023-03-06T08:38:49.638Z,992.39
2023-03-06T08:39:49.610Z,992.40
2023-03-06T08:40:49.628Z,992.40
2023-03-06T08:41:49.571Z,992.40
2023-03-06T08:42:49.583Z,992.39
2023-03-06T08:43:49.597Z,992.39
2023-03-06T08:44:49.557Z,992.38
2023-03-06T08:45:49.617Z,992.39
2023-03-06T08:46:49.537Z,992.38
2023-03-06T08:47:49.574Z,992.37
2023-03-06T08:48:49.519Z,992.37
2023-03-06T08:49:49.518Z,992.36
2023-03-06T08:50:49.497Z,992.36
2023-03-06T08:51:49.508Z,992.33
2023-03-06T08:52:49.466Z,992.34
2023-03-06T08:53:49.461Z,992.33
2023-03-06T08:54:49.475Z,992.31
2023-03-06T08:55:49.432Z,992.33
2023-03-06T08:56:49.425Z,992.33
2023-03-06T08:57:49.439Z,992.32
2023-03-06T08:58:49.392Z,992.32
2023-03-06T08:59:49.404Z,992.31
2023-03-06T09:00:49.479Z,992.31
2023-03-06T09:01:49.360Z,992.31
2023-03-06T09:02:49.376Z,992.31
2023-03-06T09:03:49.410Z,992.31
2023-03-06T09:04:49.374Z,992.31
2023-03-06T09:05:49.319Z,992.30
2023-03-06T09:06:49.332Z,992.30
2023-03-06T09:07:49.297Z,992.30
2023-03-06T09:08:49.316Z,992.31
2023-03-06T09:09:49.313Z,992.32
2023-03-06T09:10:49.317Z,992.31
2023-03-06T09:11:49.257Z,992.31
2023-03-06T09:12:52.001Z,992.29
2023-03-06T09:13:49.248Z,992.29
2023-03-06T09:14:58.030Z,992.28
2023-03-06T09:15:49.209Z,992.28
2023-03-06T09:16:49.295Z,992.28
2023-03-06T09:17:49.282Z,992.29
2023-03-06T09:18:49.191Z,992.30
2023-03-06T09:19:49.227Z,992.30
2023-03-06T09:20:49.159Z,992.30
2023-03-06T09:21:49.193Z,992.31
2023-03-06T09:22:49.162Z,992.33
2023-03-06T09:23:49.135Z,992.30
2023-03-06T09:24:49.153Z,992.30
2023-03-06T09:25:49.124Z,992.30
2023-03-06T09:26:51.422Z,992.30
2023-03-06T09:27:58.352Z,992.30
2023-03-06T09:28:49.107Z,992.29
2023-03-06T09:29:49.121Z,992.30
2023-03-06T09:30:49.105Z,992.29
2023-03-06T09:31:49.050Z,992.30
2023-03-06T09:32:49.049Z,992.31
2023-03-06T09:33:49.022Z,992.31
2023-03-06T09:34:49.052Z,992.33
2023-03-06T09:35:49.089Z,992.33
2023-03-06T09:36:56.631Z,992.34
2023-03-06T09:37:48.992Z,992.33
2023-03-06T09:38:48.980Z,992.32
2023-03-06T09:39:49.024Z,992.32
2023-03-06T09:40:48.960Z,992.32
2023-03-06T09:41:48.947Z,992.33
2023-03-06T09:42:48.946Z,992.33
2023-03-06T09:43:48.936Z,992.32
2023-03-06T09:44:48.937Z,992.32
2023-03-06T09:45:48.969Z,992.33
2023-03-06T09:46:48.894Z,992.34
2023-03-06T09:47:48.883Z,992.34
2023-03-06T09:48:48.898Z,992.34
2023-03-06T09:49:48.906Z,992.35
2023-03-06T09:50:48.884Z,992.34
2023-03-06T09:51:48.860Z,992.34
2023-03-06T09:52:48.850Z,992.33
2023-03-06T09:53:48.821Z,992.33
2023-03-06T09:54:48.846Z,992.34
2023-03-06T09:55:48.831Z,992.34
2023-03-06T09:56:48.802Z,992.35
2023-03-06T09:57:50.508Z,992.34
2023-03-06T09:58:48.804Z,992.35
2023-03-06T09:59:48.877Z,992.35
2023-03-06T10:00:48.763Z,992.36
2023-03-06T10:01:48.755Z,992.37
2023-03-06T10:02:48.835Z,992.38
2023-03-06T10:03:48.742Z,992.39
2023-03-06T10:04:48.800Z,992.39
2023-03-06T10:05:48.699Z,992.38
2023-03-06T10:06:48.687Z,992.38
2023-03-06T10:07:48.668Z,992.37
2023-03-06T10:08:48.681Z,992.37
2023-03-06T10:09:48.701Z,992.38
2023-03-06T10:10:48.670Z,992.39
2023-03-06T10:11:48.627Z,992.40
2023-03-06T10:12:48.639Z,992.39
2023-03-06T10:13:48.607Z,992.40
2023-03-06T10:14:49.444Z,992.39
2023-03-06T10:15:48.651Z,992.40
2023-03-06T10:16:48.594Z,992.40
2023-03-06T10:17:48.568Z,992.39
2023-03-06T10:18:48.574Z,992.39
2023-03-06T10:19:48.560Z,992.38
2023-03-06T10:20:48.580Z,992.37
2023-03-06T10:21:48.541Z,992.37
2023-03-06T10:23:00.613Z,992.37
2023-03-06T10:23:48.528Z,992.37
2023-03-06T10:24:48.505Z,992.38
2023-03-06T10:25:48.529Z,992.38
2023-03-06T10:26:48.563Z,992.39
2023-03-06T10:27:48.477Z,992.39
2023-03-06T10:28:48.495Z,992.40
2023-03-06T10:30:01.726Z,992.40
2023-03-06T10:30:48.498Z,992.42
2023-03-06T10:31:49.247Z,992.42
2023-03-06T10:32:49.496Z,992.42
2023-03-06T10:33:48.415Z,992.42
2023-03-06T10:34:48.401Z,992.42
2023-03-06T10:35:48.483Z,992.43
2023-03-06T10:36:48.391Z,992.44
2023-03-06T10:37:48.390Z,992.45
2023-03-06T10:38:48.395Z,992.45
2023-03-06T10:39:48.346Z,992.47
2023-03-06T10:40:48.368Z,992.46
2023-03-06T10:41:48.331Z,992.47
2023-03-06T10:42:52.090Z,992.47
2023-03-06T10:43:48.326Z,992.47
2023-03-06T10:44:48.325Z,992.48
2023-03-06T10:45:49.542Z,992.48
2023-03-06T10:46:48.333Z,992.48
2023-03-06T10:47:48.283Z,992.48
2023-03-06T10:48:48.256Z,992.48
2023-03-06T10:49:48.261Z,992.48
2023-03-06T10:50:48.265Z,992.48
2023-03-06T10:51:48.226Z,992.48
2023-03-06T10:52:48.225Z,992.47
2023-03-06T10:53:48.234Z,992.47
2023-03-06T10:54:48.255Z,992.47
2023-03-06T10:55:48.212Z,992.46
2023-03-06T10:56:48.198Z,992.46
2023-03-06T10:57:48.177Z,992.47
2023-03-06T10:58:48.193Z,992.48
2023-03-06T10:59:48.152Z,992.48
2023-03-06T11:00:48.168Z,992.49
2023-03-06T11:01:48.194Z,992.48
2023-03-06T11:02:48.134Z,992.48
2023-03-06T11:03:48.101Z,992.46
2023-03-06T11:04:48.201Z,992.46
2023-03-06T11:05:48.130Z,992.46
2023-03-06T11:06:48.093Z,992.47
2023-03-06T11:07:48.079Z,992.47
2023-03-06T11:08:48.062Z,992.46
2023-03-06T11:09:48.062Z,992.46
2023-03-06T11:10:48.087Z,992.46
2023-03-06T11:11:48.058Z,992.46
2023-03-06T11:12:48.055Z,992.47
2023-03-06T11:13:48.052Z,992.45
2023-03-06T11:14:48.140Z,992.47
2023-03-06T11:15:48.018Z,992.46
2023-03-06T11:16:48.055Z,992.47
2023-03-06T11:17:47.991Z,992.44
2023-03-06T11:18:47.955Z,992.45
2023-03-06T11:19:47.934Z,992.45
2023-03-06T11:20:52.503Z,992.45
2023-03-06T11:21:47.947Z,992.46
2023-03-06T11:22:49.205Z,992.47
2023-03-06T11:23:47.938Z,992.47
2023-03-06T11:24:47.883Z,992.46
2023-03-06T11:25:47.879Z,992.47
2023-03-06T11:26:47.881Z,992.45
2023-03-06T11:27:47.870Z,992.44
2023-03-06T11:28:47.916Z,992.41
2023-03-06T11:29:47.828Z,992.41
2023-03-06T11:30:47.838Z,992.37
2023-03-06T11:31:47.853Z,992.36
2023-03-06T11:32:47.796Z,992.36
2023-03-06T11:33:47.779Z,992.34
2023-03-06T11:34:50.288Z,992.36
2023-03-06T11:35:47.790Z,992.36
2023-03-06T11:36:47.793Z,992.35
2023-03-06T11:37:47.831Z,992.35
2023-03-06T11:38:47.736Z,992.34
2023-03-06T11:39:47.720Z,992.33
2023-03-06T11:40:47.742Z,992.35
2023-03-06T11:41:47.718Z,992.35
2023-03-06T11:42:47.696Z,992.36
2023-03-06T11:43:47.678Z,992.37
2023-03-06T11:44:47.683Z,992.36
2023-03-06T11:45:47.653Z,992.34
2023-03-06T11:46:47.737Z,992.34
2023-03-06T11:47:47.645Z,992.35
2023-03-06T11:48:47.665Z,992.35
2023-03-06T11:49:47.609Z,992.33
2023-03-06T11:50:47.648Z,992.35
2023-03-06T11:51:47.592Z,992.34
2023-03-06T11:52:47.611Z,992.33
2023-03-06T11:53:47.567Z,992.32
2023-03-06T11:54:47.588Z,992.31
2023-03-06T11:55:47.549Z,992.30
2023-03-06T11:56:47.569Z,992.30
2023-03-06T11:57:47.590Z,992.28
2023-03-06T11:58:47.522Z,992.27
2023-03-06T11:59:47.523Z,992.26
2023-03-06T12:00:47.515Z,992.25
2023-03-06T12:01:47.553Z,992.24
2023-03-06T12:02:47.530Z,992.24
2023-03-06T12:03:47.475Z,992.22
2023-03-06T12:04:47.469Z,992.21
2023-03-06T12:05:47.518Z,992.21
2023-03-06T12:06:47.456Z,992.22
2023-03-06T12:07:47.471Z,992.24
2023-03-06T12:08:47.434Z,992.24
2023-03-06T12:09:47.415Z,992.22
2023-03-06T12:10:51.594Z,992.21
2023-03-06T12:11:47.378Z,992.20
2023-03-06T12:12:47.483Z,992.18
2023-03-06T12:13:47.364Z,992.17
2023-03-06T12:14:47.367Z,992.18
2023-03-06T12:15:47.353Z,992.17
2023-03-06T12:16:47.408Z,992.17
2023-03-06T12:17:47.342Z,992.14
2023-03-06T12:18:47.327Z,992.14
2023-03-06T12:19:47.305Z,992.14
2023-03-06T12:20:47.301Z,992.16
2023-03-06T12:21:47.280Z,992.16
2023-03-06T12:22:57.749Z,992.16
2023-03-06T12:23:47.262Z,992.14
2023-03-06T12:24:47.260Z,992.13
2023-03-06T12:25:47.278Z,992.12
2023-03-06T12:26:47.252Z,992.12
2023-03-06T12:27:47.281Z,992.10
2023-03-06T12:28:47.226Z,992.07
2023-03-06T12:29:47.193Z,992.10